Time;durP1;ratioP1;P1;durP2;ratioP2;P2;SDS_P1;SDS_P2;PMS_P1;PMS_P2;Temp;Humidity;BMP_temperature;BMP_pressure;BME280_temperature;BME280_humidity;BME280_pressure;Samples;Min_cycle;Max_cycle;Signal;HPM_P1;HPM_P2
2020/12/17 00:01:20;;;;;;;164.87;52.83;;;4.10;99.90;;;;;;4844949;29;20203;-87
2020/12/17 00:03:45;;;;;;;176.27;58.50;;;5.00;99.90;;;;;;4829243;29;20656;-87
2020/12/17 00:06:12;;;;;;;170.30;56.33;;;4.30;99.90;;;;;;4860073;29;20773;-86
2020/12/17 00:08:38;;;;;;;176.10;57.83;;;3.70;99.90;;;;;;4859699;29;20192;-86
2020/12/17 00:11:03;;;;;;;162.93;55.07;;;3.50;99.90;;;;;;4844697;29;20192;-86
2020/12/17 00:13:29;;;;;;;168.33;55.77;;;4.40;99.90;;;;;;4859984;29;20680;-86
2020/12/17 00:15:55;;;;;;;162.83;53.20;;;3.40;99.90;;;;;;4859574;29;20219;-87
2020/12/17 00:18:21;;;;;;;157.37;52.90;;;4.70;99.90;;;;;;4844422;29;20287;-87
2020/12/17 00:20:46;;;;;;;173.10;54.37;;;3.30;99.90;;;;;;4828847;29;20230;-87
2020/12/17 00:23:12;;;;;;;171.20;53.87;;;4.80;99.90;;;;;;4859699;29;20277;-87
2020/12/17 00:25:38;;;;;;;170.33;50.07;;;4.20;99.90;;;;;;4844081;29;20214;-88
2020/12/17 00:28:03;;;;;;;181.27;53.43;;;3.40;99.90;;;;;;4844248;29;20195;-87
2020/12/17 00:30:29;;;;;;;170.03;52.23;;;3.40;99.90;;;;;;4828965;29;20240;-87
2020/12/17 00:32:54;;;;;;;160.40;49.97;;;4.60;99.90;;;;;;4843868;29;20191;-88
2020/12/17 00:35:20;;;;;;;161.30;50.43;;;4.40;99.90;;;;;;4859510;29;20297;-87
2020/12/17 00:37:46;;;;;;;171.87;51.17;;;5.00;99.90;;;;;;4843936;29;20668;-87
2020/12/17 00:40:14;;;;;;;174.30;49.73;;;4.70;99.90;;;;;;4844081;29;20207;-87
2020/12/17 00:42:45;;;;;;;174.03;51.67;;;4.40;99.90;;;;;;4843282;29;20241;-87
2020/12/17 00:45:17;;;;;;;166.53;49.57;;;5.20;99.90;;;;;;4859310;29;20195;-87
2020/12/17 00:47:43;;;;;;;167.13;48.30;;;5.20;99.90;;;;;;4850885;29;20292;-87
2020/12/17 00:50:11;;;;;;;178.03;49.70;;;4.40;99.90;;;;;;4878994;29;20222;-87
2020/12/17 00:52:38;;;;;;;165.43;49.20;;;5.30;99.90;;;;;;4879844;29;20193;-87
2020/12/17 00:55:05;;;;;;;160.40;48.17;;;4.70;99.90;;;;;;4880110;29;20218;-87
2020/12/17 00:57:30;;;;;;;172.03;50.07;;;5.40;99.90;;;;;;4878281;29;20188;-88
2020/12/17 00:59:56;;;;;;;183.40;52.47;;;4.00;99.90;;;;;;4878711;29;20194;-87
2020/12/17 01:02:22;;;;;;;196.13;55.47;;;5.20;99.90;;;;;;4879903;29;20193;-87
2020/12/17 01:04:49;;;;;;;191.80;53.13;;;3.90;99.90;;;;;;4879334;29;20273;-87
2020/12/17 01:07:14;;;;;;;184.87;49.97;;;4.60;99.90;;;;;;4879821;29;20178;-87
2020/12/17 01:09:40;;;;;;;232.17;65.40;;;4.60;99.90;;;;;;4878417;29;20210;-87
2020/12/17 01:12:07;;;;;;;206.53;53.00;;;5.10;99.90;;;;;;4878437;29;20184;-86
2020/12/17 01:14:33;;;;;;;208.83;52.07;;;3.40;99.90;;;;;;4878528;29;20301;-86
2020/12/17 01:17:00;;;;;;;181.17;49.57;;;4.20;99.90;;;;;;4879540;29;20192;-87
2020/12/17 01:19:25;;;;;;;204.77;52.97;;;4.10;99.90;;;;;;4879751;29;20190;-87
2020/12/17 01:21:51;;;;;;;222.97;54.47;;;3.40;99.90;;;;;;4878274;29;20193;-86
2020/12/17 01:24:17;;;;;;;212.97;52.30;;;4.40;99.90;;;;;;4862764;29;20716;-87
2020/12/17 01:26:42;;;;;;;202.23;50.60;;;4.00;99.90;;;;;;4879682;29;20187;-87
2020/12/17 01:29:08;;;;;;;196.63;49.57;;;4.30;99.90;;;;;;4878136;29;20186;-87
2020/12/17 01:31:34;;;;;;;200.03;52.00;;;4.80;99.90;;;;;;4878134;29;20181;-87
2020/12/17 01:33:59;;;;;;;207.97;52.37;;;3.60;99.90;;;;;;4877811;29;20647;-87
2020/12/17 01:36:25;;;;;;;186.30;52.77;;;3.50;99.90;;;;;;4878302;29;20211;-86
2020/12/17 01:38:50;;;;;;;212.63;56.47;;;3.50;99.90;;;;;;4878012;29;20190;-87
2020/12/17 01:41:16;;;;;;;248.13;61.30;;;4.10;99.90;;;;;;4880082;29;20186;-87
2020/12/17 01:43:44;;;;;;;244.10;62.57;;;4.30;99.90;;;;;;4880908;29;20645;-87
2020/12/17 01:46:11;;;;;;;218.97;56.20;;;4.80;99.90;;;;;;4881675;29;20194;-86
2020/12/17 01:48:38;;;;;;;246.47;62.33;;;3.50;99.90;;;;;;4897553;29;20219;-87
2020/12/17 01:51:04;;;;;;;241.80;59.57;;;5.30;99.90;;;;;;4866046;29;20198;-86
2020/12/17 01:53:40;;;;;;;267.17;55.80;;;3.50;99.90;;;;;;4898025;29;20181;-86
2020/12/17 01:56:15;;;;;;;269.37;55.77;;;4.20;99.90;;;;;;4897651;29;20209;-87
2020/12/17 01:58:47;;;;;;;285.80;59.23;;;3.50;99.90;;;;;;4897770;29;20306;-87
2020/12/17 02:01:15;;;;;;;265.13;61.20;;;5.20;99.90;;;;;;4898028;29;20611;-87
2020/12/17 02:03:41;;;;;;;284.77;60.60;;;4.70;99.90;;;;;;4865655;29;20278;-87
2020/12/17 02:06:08;;;;;;;278.73;59.73;;;3.60;99.90;;;;;;4881157;29;20257;-86
2020/12/17 02:08:38;;;;;;;279.83;61.73;;;5.70;99.90;;;;;;4880989;29;20218;-87
2020/12/17 02:11:07;;;;;;;325.73;64.57;;;3.90;99.90;;;;;;4901582;29;20211;-87
2020/12/17 02:13:34;;;;;;;312.10;70.70;;;3.60;99.90;;;;;;4901661;29;20181;-86
2020/12/17 02:16:04;;;;;;;235.03;66.90;;;4.70;99.90;;;;;;4884473;29;20706;-86
2020/12/17 02:18:30;;;;;;;253.87;66.27;;;4.10;99.90;;;;;;4884801;29;20193;-86
2020/12/17 02:20:56;;;;;;;293.33;72.47;;;4.30;99.90;;;;;;4901281;29;20185;-87
2020/12/17 02:23:22;;;;;;;290.70;68.33;;;3.70;99.90;;;;;;4901553;29;20247;-87
2020/12/17 02:25:49;;;;;;;278.97;69.07;;;3.90;99.90;;;;;;4900948;29;20275;-87
2020/12/17 02:28:25;;;;;;;303.47;63.87;;;4.10;99.90;;;;;;4884603;29;20186;-87
2020/12/17 02:30:50;;;;;;;277.47;60.50;;;5.30;99.90;;;;;;4901256;29;20177;-86
2020/12/17 02:33:17;;;;;;;283.70;61.67;;;4.80;99.90;;;;;;4900774;29;20182;-87
2020/12/17 02:35:43;;;;;;;285.77;64.50;;;3.90;99.90;;;;;;4884155;29;20300;-87
2020/12/17 02:38:09;;;;;;;277.23;59.43;;;3.60;99.90;;;;;;4884427;29;20208;-86
2020/12/17 02:40:35;;;;;;;293.77;65.27;;;3.60;99.90;;;;;;4900807;29;20638;-87
2020/12/17 02:43:01;;;;;;;276.53;68.27;;;3.60;99.90;;;;;;4900931;29;20304;-86
2020/12/17 02:45:26;;;;;;;296.27;69.50;;;3.70;99.90;;;;;;4884222;29;20284;-87
2020/12/17 02:47:52;;;;;;;320.00;72.70;;;4.40;99.90;;;;;;4900772;29;20181;-86
2020/12/17 02:50:18;;;;;;;355.33;79.27;;;3.70;99.90;;;;;;4900611;29;20258;-86
2020/12/17 02:52:44;;;;;;;323.63;74.77;;;3.70;99.90;;;;;;4900518;29;20217;-86
2020/12/17 02:55:10;;;;;;;327.40;70.87;;;5.30;99.90;;;;;;4900435;29;20217;-86
2020/12/17 02:57:36;;;;;;;291.00;66.80;;;4.80;99.90;;;;;;4900503;29;20181;-86
2020/12/17 03:00:08;;;;;;;273.97;68.77;;;4.20;99.90;;;;;;4900095;29;20276;-86
2020/12/17 03:02:34;;;;;;;297.73;65.63;;;3.70;99.90;;;;;;4900472;29;20298;-86
2020/12/17 03:05:00;;;;;;;303.67;63.57;;;5.10;99.90;;;;;;4867688;29;20288;-87
2020/12/17 03:07:25;;;;;;;298.00;64.13;;;5.40;99.90;;;;;;4899854;29;20187;-86
2020/12/17 03:09:51;;;;;;;297.40;64.53;;;4.80;99.90;;;;;;4900212;29;20237;-86
2020/12/17 03:12:17;;;;;;;286.13;61.87;;;4.00;99.90;;;;;;4900616;29;20274;-87
2020/12/17 03:14:42;;;;;;;290.23;61.77;;;4.70;99.90;;;;;;4883321;29;20226;-86
2020/12/17 03:17:08;;;;;;;277.40;60.00;;;3.60;99.90;;;;;;4900711;29;20186;-85
2020/12/17 03:19:34;;;;;;;275.30;59.43;;;3.60;99.90;;;;;;4900035;29;20656;-85
2020/12/17 03:22:00;;;;;;;326.20;57.13;;;4.90;99.90;;;;;;4883364;29;20179;-85
2020/12/17 03:24:25;;;;;;;351.40;60.30;;;5.30;99.90;;;;;;4883691;29;20185;-85
2020/12/17 03:26:51;;;;;;;292.40;59.53;;;4.40;99.90;;;;;;4900058;29;20261;-86
2020/12/17 03:29:17;;;;;;;316.00;60.87;;;3.80;99.90;;;;;;4883643;29;20712;-86
2020/12/17 03:31:42;;;;;;;372.27;60.97;;;3.70;99.90;;;;;;4882717;29;20650;-86
2020/12/17 03:34:08;;;;;;;370.20;63.10;;;4.60;99.90;;;;;;4899804;29;20213;-86
2020/12/17 03:36:33;;;;;;;342.87;66.47;;;5.20;99.90;;;;;;4883316;29;20245;-86
2020/12/17 03:38:59;;;;;;;318.23;61.43;;;5.40;99.90;;;;;;4883103;29;20192;-85
2020/12/17 03:41:26;;;;;;;380.07;62.40;;;4.30;99.90;;;;;;4868034;29;20242;-86
2020/12/17 03:43:51;;;;;;;400.43;60.37;;;3.40;99.90;;;;;;4899577;29;20167;-86
2020/12/17 03:46:17;;;;;;;363.73;64.13;;;4.40;99.90;;;;;;4883258;29;20297;-86
2020/12/17 03:48:43;;;;;;;354.97;59.53;;;5.10;99.90;;;;;;4883271;29;20196;-87
2020/12/17 03:51:08;;;;;;;293.37;68.53;;;4.40;99.90;;;;;;4883075;29;20190;-87
2020/12/17 03:53:34;;;;;;;350.50;64.10;;;3.80;99.90;;;;;;4899801;29;20188;-87
2020/12/17 03:56:00;;;;;;;271.23;59.53;;;4.20;99.90;;;;;;4867141;29;20228;-87
2020/12/17 03:58:25;;;;;;;332.00;65.20;;;4.90;99.90;;;;;;4899724;29;20174;-87
2020/12/17 04:00:51;;;;;;;357.77;69.93;;;4.70;99.90;;;;;;4882369;29;20190;-86
2020/12/17 04:03:17;;;;;;;308.13;66.77;;;5.00;99.90;;;;;;4882772;29;20194;-88
2020/12/17 04:05:42;;;;;;;303.17;68.87;;;3.80;99.90;;;;;;4867330;29;20192;-87
2020/12/17 04:08:08;;;;;;;388.53;65.43;;;4.60;99.90;;;;;;4866954;29;20272;-89
2020/12/17 04:10:33;;;;;;;323.53;66.63;;;4.30;99.90;;;;;;4867615;29;20220;-88
2020/12/17 04:12:59;;;;;;;409.97;64.30;;;5.00;99.90;;;;;;4882403;29;20652;-87
2020/12/17 04:15:25;;;;;;;329.60;63.53;;;3.40;99.90;;;;;;4899549;29;20217;-87
2020/12/17 04:17:50;;;;;;;382.60;65.27;;;4.60;99.90;;;;;;4882168;29;20189;-85
2020/12/17 04:20:16;;;;;;;365.80;67.57;;;3.40;99.90;;;;;;4867182;29;20197;-86
2020/12/17 04:22:41;;;;;;;323.87;63.37;;;4.40;99.90;;;;;;4882435;29;20195;-88
2020/12/17 04:30:31;;;;;;;377.13;76.13;;;3.50;99.90;;;;;;5206961;23;20244;-89
2020/12/17 04:32:57;;;;;;;396.00;71.87;;;4.50;99.90;;;;;;4898734;29;20186;-88
2020/12/17 04:35:22;;;;;;;347.10;77.93;;;5.00;99.90;;;;;;4899203;29;20225;-88
2020/12/17 04:37:48;;;;;;;371.33;72.40;;;4.50;99.90;;;;;;4882117;29;20190;-88
2020/12/17 04:40:14;;;;;;;449.57;70.00;;;4.10;99.90;;;;;;4866458;29;20288;-88
2020/12/17 04:42:41;;;;;;;409.37;66.97;;;4.20;99.90;;;;;;4866498;29;20239;-88
2020/12/17 04:45:07;;;;;;;375.77;68.00;;;3.80;99.90;;;;;;4881633;29;20190;-88
2020/12/17 04:47:37;;;;;;;401.40;67.23;;;3.80;99.90;;;;;;4898639;29;20188;-89
2020/12/17 04:50:11;;;;;;;373.80;70.97;;;3.80;99.90;;;;;;4898482;29;20209;-88
2020/12/17 04:52:38;;;;;;;380.90;66.10;;;4.00;99.90;;;;;;4898853;29;20182;-88
2020/12/17 04:55:05;;;;;;;386.47;68.80;;;4.40;99.90;;;;;;4898446;29;20304;-88
2020/12/17 04:57:32;;;;;;;394.23;68.73;;;3.50;99.90;;;;;;4882085;29;20186;-87
2020/12/17 04:59:58;;;;;;;298.73;71.50;;;3.50;99.90;;;;;;4881638;29;20189;-88
2020/12/17 05:02:24;;;;;;;288.27;67.97;;;3.50;99.90;;;;;;4898139;29;20187;-87
2020/12/17 05:04:53;;;;;;;339.23;64.43;;;3.50;99.90;;;;;;4866072;29;20197;-88
2020/12/17 05:07:23;;;;;;;383.63;68.30;;;3.70;99.90;;;;;;4889659;29;20182;-88
2020/12/17 05:09:50;;;;;;;302.67;67.00;;;4.00;99.90;;;;;;4886913;29;20719;-87
2020/12/17 05:12:17;;;;;;;275.33;68.90;;;3.50;99.90;;;;;;4883993;29;20260;-87
2020/12/17 05:14:44;;;;;;;354.87;70.03;;;3.50;99.90;;;;;;4887139;29;20269;-87
2020/12/17 05:17:10;;;;;;;305.37;64.83;;;3.50;99.90;;;;;;4897882;29;20215;-88
2020/12/17 05:19:36;;;;;;;293.37;71.33;;;3.50;99.90;;;;;;4881538;29;20674;-88
2020/12/17 05:22:04;;;;;;;289.47;67.47;;;3.40;99.90;;;;;;4880924;29;20189;-88
2020/12/17 05:24:29;;;;;;;239.93;59.53;;;3.40;99.90;;;;;;4898250;29;20186;-89
2020/12/17 05:26:57;;;;;;;235.33;61.10;;;3.80;99.90;;;;;;4881247;29;20190;-89
2020/12/17 05:29:23;;;;;;;226.53;64.10;;;3.80;99.90;;;;;;4864504;29;20339;-88
2020/12/17 05:31:50;;;;;;;246.27;68.77;;;3.50;99.90;;;;;;4880972;29;20205;-88
2020/12/17 05:34:16;;;;;;;268.90;63.27;;;3.50;99.90;;;;;;4897463;29;20214;-89
2020/12/17 05:36:44;;;;;;;242.83;62.77;;;3.40;99.90;;;;;;4880673;29;20570;-89
2020/12/17 05:39:12;;;;;;;265.87;62.00;;;3.40;99.90;;;;;;4880926;29;20189;-89
2020/12/17 05:41:42;;;;;;;307.07;75.37;;;3.30;99.90;;;;;;4880807;29;20193;-90
2020/12/17 05:44:19;;;;;;;296.43;75.80;;;3.30;99.90;;;;;;4897083;29;20621;-87
2020/12/17 05:46:47;;;;;;;324.23;83.17;;;3.90;99.90;;;;;;4894389;29;20622;-89
2020/12/17 05:49:17;;;;;;;311.70;77.63;;;4.20;99.90;;;;;;4871178;29;20177;-88
2020/12/17 05:51:44;;;;;;;318.67;72.40;;;3.40;99.90;;;;;;4871427;29;20623;-89
2020/12/17 05:54:25;;;;;;;298.77;74.30;;;3.30;99.90;;;;;;4885869;29;20220;-90
2020/12/17 05:57:05;;;;;;;328.63;76.37;;;3.40;99.90;;;;;;4862751;29;20209;-89
2020/12/17 05:59:31;;;;;;;337.57;78.37;;;3.60;99.90;;;;;;4885626;29;20688;-89
2020/12/17 06:01:56;;;;;;;303.80;73.17;;;4.00;99.90;;;;;;4870489;29;20241;-89
2020/12/17 06:04:22;;;;;;;355.83;76.67;;;3.50;99.90;;;;;;4870673;29;20224;-90
2020/12/17 06:06:49;;;;;;;354.37;81.00;;;3.40;99.90;;;;;;4888515;29;20193;-89
2020/12/17 06:09:22;;;;;;;322.50;77.43;;;3.40;99.90;;;;;;4872059;29;20190;-89
2020/12/17 06:11:50;;;;;;;329.87;80.07;;;3.60;99.90;;;;;;4888476;29;20179;-88
2020/12/17 06:14:20;;;;;;;339.50;77.53;;;3.40;99.90;;;;;;4886995;29;20178;-87
2020/12/17 06:16:55;;;;;;;332.50;78.67;;;3.40;99.90;;;;;;4870232;29;20190;-88
2020/12/17 06:19:22;;;;;;;304.60;74.53;;;3.40;99.90;;;;;;4887582;29;20643;-89
2020/12/17 06:21:49;;;;;;;319.60;83.10;;;4.00;99.90;;;;;;4869756;29;20194;-88
2020/12/17 06:24:18;;;;;;;301.43;71.93;;;3.50;99.90;;;;;;4888437;29;20185;-89
2020/12/17 06:26:51;;;;;;;286.23;70.60;;;4.10;99.90;;;;;;4888022;29;20194;-89
2020/12/17 06:29:19;;;;;;;264.17;64.33;;;3.40;99.90;;;;;;4875611;29;20569;-89
2020/12/17 06:31:58;;;;;;;258.93;65.57;;;3.50;99.90;;;;;;4879728;29;20192;-91
2020/12/17 06:34:36;;;;;;;271.60;64.47;;;3.40;99.90;;;;;;4879696;29;20175;-87
2020/12/17 06:37:03;;;;;;;238.57;60.60;;;3.50;99.90;;;;;;4880222;29;20267;-90
2020/12/17 06:39:29;;;;;;;263.07;63.93;;;3.70;99.90;;;;;;4897083;29;20193;-90
2020/12/17 06:41:54;;;;;;;255.10;65.47;;;4.10;99.90;;;;;;4879483;29;20186;-88
2020/12/17 06:44:28;;;;;;;278.33;68.63;;;3.50;99.90;;;;;;4878446;29;20205;-91
2020/12/17 06:47:08;;;;;;;251.83;63.50;;;4.40;99.90;;;;;;4878687;29;20232;-87
2020/12/17 06:49:33;;;;;;;226.53;58.63;;;3.50;99.90;;;;;;4895416;29;20220;-89
2020/12/17 06:52:07;;;;;;;227.93;55.07;;;3.60;99.90;;;;;;4878450;29;20210;-88
2020/12/17 06:54:40;;;;;;;238.10;61.37;;;3.50;99.90;;;;;;4878229;29;20514;-88
2020/12/17 06:57:10;;;;;;;223.07;64.63;;;3.50;99.90;;;;;;4881748;29;20178;-89
2020/12/17 06:59:41;;;;;;;220.30;62.13;;;3.50;99.90;;;;;;4900520;29;20184;-89
2020/12/17 07:02:07;;;;;;;218.43;60.23;;;4.30;99.90;;;;;;4883718;29;20194;-91
2020/12/17 07:04:36;;;;;;;242.63;65.10;;;3.80;99.90;;;;;;4852752;29;20329;-89
2020/12/17 07:07:09;;;;;;;272.20;69.27;;;3.60;99.90;;;;;;4900225;29;20186;-87
2020/12/17 07:09:35;;;;;;;277.27;72.63;;;3.50;99.90;;;;;;4883420;29;20189;-88
2020/12/17 07:12:01;;;;;;;242.60;64.87;;;3.40;99.90;;;;;;4900647;29;20534;-87
2020/12/17 07:14:26;;;;;;;270.40;68.20;;;3.50;99.90;;;;;;4900439;29;20628;-88
2020/12/17 07:16:55;;;;;;;259.50;71.47;;;3.50;99.90;;;;;;4900223;29;20233;-89
2020/12/17 07:19:47;;;;;;;290.27;77.10;;;4.00;99.90;;;;;;4900179;29;20220;-88
2020/12/17 07:22:14;;;;;;;350.43;89.03;;;3.50;99.90;;;;;;4883543;29;20190;-89
2020/12/17 07:24:44;;;;;;;299.23;80.10;;;3.50;99.90;;;;;;4883131;29;20518;-88
2020/12/17 07:27:15;;;;;;;266.20;71.07;;;3.60;99.90;;;;;;4899785;29;20296;-89
2020/12/17 07:29:46;;;;;;;308.33;91.87;;;3.50;99.90;;;;;;4900168;29;20302;-88
2020/12/17 07:32:31;;;;;;;317.13;95.83;;;3.50;99.90;;;;;;4899965;29;20177;-88
2020/12/17 07:35:18;;;;;;;315.50;89.03;;;3.50;99.90;;;;;;4876236;29;20233;-87
2020/12/17 07:38:00;;;;;;;285.97;83.80;;;3.60;99.90;;;;;;4880927;29;20197;-88
2020/12/17 07:40:36;;;;;;;274.87;78.33;;;3.60;99.90;;;;;;4881214;29;20187;-91
2020/12/17 07:43:03;;;;;;;265.67;77.57;;;3.60;99.90;;;;;;4864398;29;20186;-87
2020/12/17 07:45:49;;;;;;;269.80;77.40;;;3.70;99.90;;;;;;4864456;29;20607;-88
2020/12/17 07:48:33;;;;;;;263.43;71.70;;;3.70;99.90;;;;;;4882756;29;20178;-88
2020/12/17 07:51:09;;;;;;;247.90;71.73;;;3.70;99.90;;;;;;4873771;29;20183;-87
2020/12/17 07:53:36;;;;;;;209.00;61.47;;;3.70;99.90;;;;;;4875596;29;20243;-88
2020/12/17 07:56:02;;;;;;;214.67;59.57;;;3.70;99.90;;;;;;4893600;29;20220;-88
2020/12/17 07:58:28;;;;;;;207.07;54.70;;;3.70;99.90;;;;;;4871976;29;20277;-89
2020/12/17 08:00:58;;;;;;;194.80;54.77;;;3.80;99.90;;;;;;4856047;29;20266;-88
2020/12/17 08:03:24;;;;;;;197.33;56.63;;;3.80;99.90;;;;;;4887688;29;20186;-89
2020/12/17 08:05:51;;;;;;;202.17;57.93;;;3.80;99.90;;;;;;4870670;29;20712;-88
2020/12/17 08:08:17;;;;;;;203.57;59.60;;;3.80;99.90;;;;;;4872579;29;20237;-89
2020/12/17 08:10:44;;;;;;;199.73;54.17;;;3.80;99.90;;;;;;4893086;29;20188;-88
2020/12/17 08:13:10;;;;;;;167.80;51.47;;;3.90;99.90;;;;;;4882318;29;20190;-88
2020/12/17 08:15:36;;;;;;;175.97;53.60;;;3.90;99.90;;;;;;4899101;29;20231;-89
2020/12/17 08:18:03;;;;;;;161.60;48.93;;;4.00;99.90;;;;;;4899062;29;20185;-89
2020/12/17 08:20:30;;;;;;;166.37;50.70;;;4.00;99.90;;;;;;4882769;29;20186;-89
2020/12/17 08:22:56;;;;;;;159.77;46.73;;;4.40;99.90;;;;;;4899216;29;20180;-87
2020/12/17 08:25:23;;;;;;;148.07;47.93;;;4.10;99.90;;;;;;4882323;29;20195;-88
2020/12/17 08:27:52;;;;;;;145.63;47.57;;;4.10;99.90;;;;;;4882258;29;20186;-88
2020/12/17 08:30:24;;;;;;;139.77;47.00;;;4.10;99.90;;;;;;4898713;29;20237;-86
2020/12/17 08:32:52;;;;;;;150.43;45.47;;;4.40;99.90;;;;;;4898768;29;20218;-87
2020/12/17 08:35:24;;;;;;;145.37;44.97;;;4.20;99.90;;;;;;4898752;29;20290;-87
2020/12/17 08:37:55;;;;;;;133.43;45.90;;;4.20;99.90;;;;;;4899046;29;20181;-87
2020/12/17 08:40:25;;;;;;;140.57;45.30;;;4.30;99.90;;;;;;4891835;29;20192;-88
2020/12/17 08:42:58;;;;;;;131.67;43.70;;;4.30;99.90;;;;;;4898543;29;20547;-87
2020/12/17 08:45:25;;;;;;;136.83;42.97;;;4.30;99.90;;;;;;4898662;29;20178;-87
2020/12/17 08:47:56;;;;;;;143.20;47.40;;;4.40;99.90;;;;;;4851209;29;20186;-87
2020/12/17 08:50:22;;;;;;;118.87;42.40;;;4.40;99.90;;;;;;4898594;29;20267;-87
2020/12/17 08:52:49;;;;;;;112.70;42.07;;;4.40;99.90;;;;;;4898417;29;20219;-87
2020/12/17 08:55:15;;;;;;;118.17;40.23;;;4.30;99.90;;;;;;4879373;29;20798;-87
2020/12/17 08:57:41;;;;;;;105.87;38.60;;;4.30;99.90;;;;;;4889291;29;20191;-87
2020/12/17 09:00:13;;;;;;;111.57;40.77;;;4.40;99.90;;;;;;4878873;29;20189;-89
2020/12/17 09:02:40;;;;;;;109.90;39.47;;;4.60;99.90;;;;;;4857270;29;20559;-88
2020/12/17 09:05:06;;;;;;;105.40;38.33;;;4.50;99.90;;;;;;4878504;29;20193;-89
2020/12/17 09:07:32;;;;;;;98.60;37.47;;;4.50;99.90;;;;;;4877680;29;20215;-88
2020/12/17 09:10:17;;;;;;;117.40;40.10;;;4.60;99.90;;;;;;4877419;29;20559;-89
2020/12/17 09:12:44;;;;;;;93.37;37.57;;;4.60;99.90;;;;;;4860106;29;20224;-88
2020/12/17 09:15:12;;;;;;;86.90;35.37;;;4.60;99.90;;;;;;4861048;29;20319;-88
2020/12/17 09:17:38;;;;;;;89.10;35.43;;;4.60;99.90;;;;;;4860146;29;20190;-88
2020/12/17 09:20:18;;;;;;;89.73;35.47;;;4.60;99.90;;;;;;4883403;29;20244;-87
2020/12/17 09:22:45;;;;;;;86.10;36.63;;;4.60;99.90;;;;;;4885749;29;20181;-87
2020/12/17 09:25:14;;;;;;;89.30;35.80;;;4.70;99.90;;;;;;4884727;29;20197;-86
2020/12/17 09:27:42;;;;;;;93.77;35.43;;;4.70;99.90;;;;;;4870942;29;20195;-86
2020/12/17 09:30:20;;;;;;;88.60;34.00;;;4.70;99.90;;;;;;4881839;29;20312;-86
2020/12/17 09:32:53;;;;;;;88.07;34.57;;;4.70;99.90;;;;;;4865292;29;20240;-87
2020/12/17 09:35:21;;;;;;;89.73;36.23;;;4.80;99.90;;;;;;4878917;29;20215;-88
2020/12/17 09:38:09;;;;;;;81.43;33.53;;;4.90;99.90;;;;;;4879088;29;20188;-86
2020/12/17 09:40:37;;;;;;;86.43;34.57;;;4.80;99.90;;;;;;4879633;29;20222;-86
2020/12/17 09:43:04;;;;;;;80.17;32.43;;;4.80;99.90;;;;;;4879120;29;20181;-86
2020/12/17 09:45:36;;;;;;;82.07;34.80;;;4.90;99.90;;;;;;4862619;29;20587;-87
2020/12/17 09:48:18;;;;;;;79.03;33.57;;;4.90;99.90;;;;;;4879012;29;20180;-90
2020/12/17 09:50:54;;;;;;;83.10;34.67;;;4.90;99.90;;;;;;4879053;29;20181;-87
2020/12/17 09:53:21;;;;;;;80.13;33.60;;;4.90;99.90;;;;;;4878524;29;20192;-87
2020/12/17 09:55:48;;;;;;;73.53;32.87;;;5.00;99.90;;;;;;4860658;29;20223;-88
2020/12/17 09:58:13;;;;;;;76.87;32.33;;;5.00;99.90;;;;;;4846568;29;20248;-87
2020/12/17 10:00:39;;;;;;;85.60;35.03;;;5.00;99.90;;;;;;4862328;29;20188;-87
2020/12/17 10:03:04;;;;;;;81.73;32.97;;;5.00;99.90;;;;;;4862022;29;20192;-88
2020/12/17 10:05:30;;;;;;;81.37;32.53;;;5.00;99.90;;;;;;4879235;29;20192;-87
2020/12/17 10:07:56;;;;;;;80.83;34.03;;;5.00;99.90;;;;;;4862264;29;20188;-86
2020/12/17 10:10:21;;;;;;;72.37;33.20;;;5.10;99.90;;;;;;4862479;29;20642;-88
2020/12/17 10:12:48;;;;;;;79.73;31.90;;;5.20;99.90;;;;;;4879277;29;20293;-90
2020/12/17 10:15:13;;;;;;;73.50;33.13;;;5.10;99.90;;;;;;4862244;29;20672;-89
2020/12/17 10:17:39;;;;;;;76.60;32.17;;;5.10;99.90;;;;;;4862444;29;20268;-89
2020/12/17 10:20:07;;;;;;;79.53;32.97;;;5.10;99.90;;;;;;4862117;29;20264;-93
2020/12/17 10:22:34;;;;;;;82.10;34.77;;;5.10;99.90;;;;;;4862041;29;20197;-90
2020/12/17 10:24:59;;;;;;;73.93;32.97;;;5.10;99.90;;;;;;4878192;29;20206;-89
2020/12/17 10:27:25;;;;;;;76.30;32.63;;;5.10;99.90;;;;;;4879081;29;20228;-91
2020/12/17 10:29:50;;;;;;;74.57;32.80;;;5.10;99.90;;;;;;4862074;29;20660;-90
2020/12/17 10:32:18;;;;;;;81.80;35.50;;;5.10;99.90;;;;;;4886205;29;20193;-90
2020/12/17 10:34:44;;;;;;;91.00;37.57;;;5.20;99.90;;;;;;4883092;29;20189;-90
2020/12/17 10:37:10;;;;;;;76.37;34.60;;;5.20;99.90;;;;;;4882116;29;20673;-90
2020/12/17 10:39:35;;;;;;;74.03;32.63;;;5.20;99.90;;;;;;4881873;29;20611;-90
2020/12/17 10:42:02;;;;;;;79.40;33.17;;;5.20;99.90;;;;;;4876806;29;20292;-89
2020/12/17 10:44:28;;;;;;;70.53;31.93;;;5.20;99.90;;;;;;4883877;29;20331;-90
2020/12/17 10:46:54;;;;;;;78.90;33.40;;;5.20;99.90;;;;;;4900736;29;20257;-89
2020/12/17 10:49:19;;;;;;;71.63;32.27;;;5.20;99.90;;;;;;4877553;29;20204;-90
2020/12/17 10:51:48;;;;;;;81.47;33.83;;;5.10;99.90;;;;;;4865155;29;20662;-91
2020/12/17 10:54:14;;;;;;;81.17;34.50;;;5.10;99.90;;;;;;4864927;29;20543;-91
2020/12/17 10:56:44;;;;;;;97.63;39.00;;;5.30;99.90;;;;;;4869743;29;20299;-90
2020/12/17 10:59:09;;;;;;;78.53;31.97;;;5.10;99.90;;;;;;4893001;29;20191;-91
2020/12/17 11:01:35;;;;;;;79.63;34.63;;;5.10;99.90;;;;;;4870037;29;20197;-91
2020/12/17 11:04:01;;;;;;;91.57;39.90;;;5.10;99.90;;;;;;4849628;29;20282;-93
2020/12/17 11:06:26;;;;;;;108.20;43.97;;;5.00;99.90;;;;;;4865134;29;20205;-91
2020/12/17 11:08:52;;;;;;;77.40;33.80;;;5.00;99.90;;;;;;4881545;29;20179;-92
2020/12/17 11:11:18;;;;;;;112.47;51.00;;;5.00;99.90;;;;;;4881672;29;20197;-91
2020/12/17 11:13:44;;;;;;;112.67;45.83;;;5.00;99.90;;;;;;4881499;29;20548;-91
2020/12/17 11:16:10;;;;;;;91.70;36.53;;;5.10;99.90;;;;;;4867152;29;20308;-90
2020/12/17 11:18:36;;;;;;;87.13;36.73;;;5.00;99.90;;;;;;4849498;29;20700;-90
2020/12/17 11:21:01;;;;;;;72.77;32.37;;;5.10;99.90;;;;;;4881392;29;20224;-90
2020/12/17 11:23:27;;;;;;;70.30;31.43;;;5.00;99.90;;;;;;4869852;29;20189;-88
2020/12/17 11:25:53;;;;;;;72.37;32.27;;;5.00;99.90;;;;;;4890929;29;20192;-90
2020/12/17 11:28:18;;;;;;;80.93;35.27;;;5.00;99.90;;;;;;4871023;29;20189;-91
2020/12/17 11:30:44;;;;;;;78.33;34.23;;;5.00;99.90;;;;;;4883857;29;20229;-89
2020/12/17 11:33:10;;;;;;;76.43;35.23;;;5.20;99.90;;;;;;4873795;29;20658;-89
2020/12/17 11:35:35;;;;;;;72.57;34.67;;;5.00;99.90;;;;;;4887528;29;20213;-88
2020/12/17 11:38:02;;;;;;;75.63;34.80;;;4.90;99.90;;;;;;4888876;29;20551;-88
2020/12/17 11:40:27;;;;;;;69.60;32.63;;;4.90;99.90;;;;;;4872234;29;20233;-90
2020/12/17 11:42:56;;;;;;;77.40;33.83;;;5.00;99.90;;;;;;4871227;29;20189;-88
2020/12/17 11:45:25;;;;;;;82.47;37.33;;;5.00;99.90;;;;;;4891975;29;20325;-85
2020/12/17 11:47:53;;;;;;;89.43;39.70;;;4.90;99.90;;;;;;4891572;29;20286;-92
2020/12/17 11:50:19;;;;;;;90.30;37.53;;;4.90;99.90;;;;;;4880749;29;20196;-91
2020/12/17 11:52:45;;;;;;;82.30;35.43;;;4.90;99.90;;;;;;4884870;29;20633;-89
2020/12/17 11:55:11;;;;;;;92.63;38.33;;;4.90;99.90;;;;;;4880614;29;20276;-91
2020/12/17 11:57:36;;;;;;;80.40;33.60;;;4.90;99.90;;;;;;4865381;29;20195;-91
2020/12/17 12:00:08;;;;;;;84.33;35.83;;;4.80;99.90;;;;;;4898617;29;20199;-89
2020/12/17 12:02:34;;;;;;;83.53;38.00;;;5.00;99.90;;;;;;4899339;29;20181;-90
2020/12/17 12:05:00;;;;;;;102.00;41.63;;;4.80;99.90;;;;;;4898840;29;20242;-87
2020/12/17 12:07:26;;;;;;;85.43;37.50;;;4.80;99.90;;;;;;4899165;29;20180;-88
2020/12/17 12:09:52;;;;;;;81.67;37.00;;;4.70;99.90;;;;;;4882368;29;20713;-90
2020/12/17 12:12:18;;;;;;;84.00;36.00;;;4.70;99.90;;;;;;4899537;29;20199;-89
2020/12/17 12:14:44;;;;;;;92.63;40.27;;;4.70;99.90;;;;;;4899303;29;20185;-88
2020/12/17 12:17:10;;;;;;;88.33;38.00;;;4.70;99.90;;;;;;4899223;29;20184;-87
2020/12/17 12:19:35;;;;;;;71.90;32.83;;;4.70;99.90;;;;;;4882538;29;20188;-88
2020/12/17 12:22:01;;;;;;;81.80;37.07;;;4.70;99.90;;;;;;4904369;29;20184;-87
2020/12/17 12:24:27;;;;;;;75.77;33.43;;;4.70;99.90;;;;;;4878181;29;20267;-88
2020/12/17 12:26:52;;;;;;;80.33;35.07;;;4.60;99.90;;;;;;4887653;29;20180;-88
2020/12/17 12:29:18;;;;;;;80.27;36.73;;;5.00;99.90;;;;;;4920593;29;20237;-88
2020/12/17 12:31:44;;;;;;;77.17;36.13;;;4.60;99.90;;;;;;4900498;29;20613;-86
2020/12/17 12:34:09;;;;;;;81.77;36.50;;;4.70;99.90;;;;;;4898522;29;20192;-88
2020/12/17 12:36:35;;;;;;;82.90;36.17;;;5.60;99.90;;;;;;4872981;29;20308;-88
2020/12/17 12:39:01;;;;;;;85.93;36.50;;;4.40;99.90;;;;;;4871543;29;20196;-88